Bushehr, Iran

7:31 AM IRDT on September 21, 2014 (GMT +0430)
Bushehr | Change Station
CLOSE
Current Station
Airport
Location: Bushehr,
Elevation: 62 ft
Nearby Weather Stations

Elev 62 ft 28.97 °N, 50.82 °E | Updated 1 hour ago

Clear
Clear
81 °F
Feels Like 85 °F
N
0
Wind Variable Wind from North

Today
High -- | Low -- °F
--% Chance of Precip.
Yesterday
High -- | Low -- °F
Precip. -- in
6:54 AM 7:04 PM
Waning Crescent, 9% visible
Pressure 29.62 in
Visibility 3.7 miles
Clouds Clear
Heat Index 85 °F
Dew Point 72 °F
Humidity 74%
Rainfall 0.00 in
Snow Depth Not available.
UV 0 out of 12
Pollen Not available.
Air Quality Not available.
Flu Activity Not available.
METAR OIBB 210200Z 00000KT 6000 SKC 27/22 Q1003 A2963

More Conditions Fewer Conditions

Pressure 29.62 in
Visibility 3.7 miles
Clouds Clear
Heat Index 85 °F
Dew Point 72 °F
Humidity 74%
Rainfall 0.00 in
Snow Depth Not available.
UV 0 out of 12
Pollen Not available.
Air Quality Not available.
Flu Activity Not available.
METAR OIBB 210200Z 00000KT 6000 SKC 27/22 Q1003 A2963

More Conditions Fewer Conditions

10-Day Weather Forecast

Almanac

Astronomy

Sep. 21, 2014 Rise Set
Actual Time 6:54 AM IRDT 7:04 PM IRDT
Civil Twilight 6:30 AM IRDT 7:28 PM IRDT
Nautical Twilight 6:03 AM IRDT 7:56 PM IRDT
Astronomical Twilight 5:35 AM IRDT 8:23 PM IRDT
Moon 4:17 AM IRDT 5:20 PM IRDT
Length of Visible Light 12h 57m
Length of Day
12h 10m
Tomorrow will be 1m 43s shorter.
Waning Crescent, 9% of the Moon is Illuminated
Sep 20
Waning Crescent
Sep 24
New
Oct 1
First Quarter
Oct 8
Full
Oct 15
Last Quarter

Yesterday's Extremes

Country Highs Country Lows

Community

WunderPhotos

Upload Photos

1,755,067 photos uploaded!

WunderBlogs® & News

Nearby

Snow Depth

Not available.

Earthquake Activity

City Distance Mag. Time & Date
No recent earthquake activity has been reported nearby.
Minimum magnitude displayed is 2.5.

Coastal Water Temperatures

Place Temperature
No Stations Reporting

Nearby Weather Stations